createdAt,value
2019-03-06T00:01:25.163Z,4.77
2019-03-06T00:06:26.732Z,4.76
2019-03-06T00:11:28.277Z,4.77
2019-03-06T00:16:29.830Z,4.76
2019-03-06T00:21:31.401Z,4.79
2019-03-06T00:26:33.060Z,4.79
2019-03-06T00:31:34.754Z,4.80
2019-03-06T00:36:36.453Z,4.82
2019-03-06T00:41:43.472Z,4.83
2019-03-06T00:46:45.151Z,4.85
2019-03-06T00:51:46.722Z,4.83
2019-03-06T00:56:48.285Z,4.83
2019-03-06T01:01:50.172Z,4.88
2019-03-06T01:06:52.216Z,4.88
2019-03-06T01:11:53.789Z,4.86
2019-03-06T01:16:55.360Z,4.84
2019-03-06T01:21:56.957Z,4.83
2019-03-06T01:26:58.531Z,4.85
2019-03-06T01:32:00.239Z,4.84
2019-03-06T01:37:21.594Z,4.80
2019-03-06T01:42:45.517Z,4.74
2019-03-06T01:47:47.136Z,4.69
2019-03-06T01:52:48.809Z,4.61
2019-03-06T01:57:50.361Z,4.62
2019-03-06T02:02:52.014Z,4.61
2019-03-06T02:07:53.664Z,4.63
2019-03-06T02:12:55.349Z,4.64
2019-03-06T02:17:56.914Z,4.68
2019-03-06T02:22:58.597Z,4.67
2019-03-06T02:28:00.560Z,4.58
2019-03-06T02:33:02.220Z,4.54
2019-03-06T02:38:03.903Z,4.55
2019-03-06T02:43:05.570Z,4.51
2019-03-06T02:48:07.241Z,4.51
2019-03-06T02:53:08.858Z,4.50
2019-03-06T02:58:20.706Z,4.43
2019-03-06T03:03:47.930Z,4.40
2019-03-06T03:08:49.687Z,4.30
2019-03-06T03:13:51.233Z,4.09
2019-03-06T03:18:52.910Z,3.99
2019-03-06T03:23:54.463Z,3.93
2019-03-06T03:28:56.088Z,3.88
2019-03-06T03:33:57.747Z,3.82
2019-03-06T03:38:59.304Z,3.80
2019-03-06T03:44:00.939Z,3.76
2019-03-06T03:49:02.498Z,3.75
2019-03-06T03:54:04.543Z,3.79
2019-03-06T03:59:06.211Z,3.79
2019-03-06T04:04:07.879Z,3.84
2019-03-06T04:09:09.608Z,3.86
2019-03-06T04:14:11.186Z,3.89
2019-03-06T04:19:12.750Z,3.85
2019-03-06T04:24:14.308Z,3.80
2019-03-06T04:29:16.090Z,3.80
2019-03-06T04:34:17.842Z,3.82
2019-03-06T04:39:19.463Z,3.79
2019-03-06T04:44:21.016Z,3.83
2019-03-06T04:49:22.571Z,3.92
2019-03-06T04:54:24.124Z,3.91
2019-03-06T04:59:25.675Z,3.88
2019-03-06T05:04:27.222Z,3.87
2019-03-06T05:09:28.759Z,3.90
2019-03-06T05:14:30.745Z,3.89
2019-03-06T05:19:32.284Z,3.90
2019-03-06T05:24:33.913Z,3.88
2019-03-06T05:29:35.465Z,3.88
2019-03-06T05:34:37.012Z,3.86
2019-03-06T05:39:38.688Z,3.89
2019-03-06T05:44:40.256Z,3.90
2019-03-06T05:49:41.841Z,3.92
2019-03-06T05:54:43.395Z,3.96
2019-03-06T05:59:44.951Z,4.04
2019-03-06T06:04:46.497Z,4.13
2019-03-06T06:09:48.043Z,4.16
2019-03-06T06:14:49.617Z,4.25
2019-03-06T06:19:51.414Z,4.29
2019-03-06T06:24:52.973Z,4.35
2019-03-06T06:29:54.523Z,4.38
2019-03-06T06:34:56.199Z,4.37
2019-03-06T06:39:57.735Z,4.40
2019-03-06T06:44:59.385Z,4.45
2019-03-06T06:50:00.951Z,4.47
2019-03-06T06:55:24.701Z,4.53
2019-03-06T07:01:00.607Z,4.58
2019-03-06T07:06:20.664Z,4.63
2019-03-06T07:11:30.267Z,4.76
2019-03-06T07:16:45.040Z,4.83
2019-03-06T07:21:55.774Z,4.92
2019-03-06T07:27:10.316Z,5.01
2019-03-06T07:32:30.100Z,5.16
2019-03-06T07:37:46.117Z,5.31
2019-03-06T07:43:12.992Z,5.44
2019-03-06T07:48:33.292Z,5.55
2019-03-06T07:53:59.027Z,5.64
2019-03-06T07:59:00.869Z,5.76
2019-03-06T08:04:10.874Z,5.87
2019-03-06T08:09:17.199Z,6.01
2019-03-06T08:14:56.606Z,6.17
2019-03-06T08:20:15.002Z,6.30
2019-03-06T08:25:23.048Z,6.47
2019-03-06T08:30:26.672Z,6.59
2019-03-06T08:35:28.421Z,6.72
2019-03-06T08:40:30.256Z,6.84
2019-03-06T08:45:43.208Z,6.99
2019-03-06T08:51:10.709Z,7.14
2019-03-06T08:56:18.841Z,7.27
2019-03-06T09:02:00.469Z,7.40
2019-03-06T09:07:09.721Z,7.63
2019-03-06T09:12:25.842Z,7.77
2019-03-06T09:17:42.160Z,7.85
2019-03-06T09:23:02.143Z,8.00
2019-03-06T09:28:23.534Z,8.18
2019-03-06T09:33:41.876Z,8.41
2019-03-06T09:39:06.208Z,8.58
2019-03-06T09:44:36.518Z,8.65
2019-03-06T09:50:00.894Z,8.66
2019-03-06T09:55:37.527Z,8.68
2019-03-06T10:00:53.458Z,8.89
2019-03-06T10:06:02.387Z,9.15
2019-03-06T10:11:19.407Z,9.39
2019-03-06T10:16:31.038Z,9.62
2019-03-06T10:21:32.642Z,9.81
2019-03-06T10:26:34.340Z,9.88
2019-03-06T10:31:36.090Z,9.89
2019-03-06T10:36:37.844Z,9.91
2019-03-06T10:41:39.488Z,10.10
2019-03-06T10:46:41.272Z,10.50
2019-03-06T10:51:43.220Z,10.84
2019-03-06T10:56:44.972Z,11.02
2019-03-06T11:01:46.673Z,11.33
2019-03-06T11:06:48.375Z,11.72
2019-03-06T11:11:50.143Z,11.93
2019-03-06T11:16:51.847Z,12.24
2019-03-06T11:21:53.965Z,12.55
2019-03-06T11:26:55.911Z,12.78
2019-03-06T11:31:57.636Z,12.86
2019-03-06T11:36:59.496Z,13.01
2019-03-06T11:42:01.198Z,13.47
2019-03-06T11:47:02.951Z,15.42
2019-03-06T11:52:06.576Z,16.90
2019-03-06T11:57:08.480Z,18.20
2019-03-06T12:02:10.655Z,19.72
2019-03-06T12:07:12.621Z,20.03
2019-03-06T12:12:14.237Z,23.65
2019-03-06T12:17:15.944Z,23.65
2019-03-06T12:22:17.576Z,23.77
2019-03-06T12:27:19.242Z,23.39
2019-03-06T12:32:20.901Z,21.13
2019-03-06T12:37:22.480Z,18.12
2019-03-06T12:42:24.073Z,17.02
2019-03-06T12:47:25.942Z,18.24
2019-03-06T12:52:27.723Z,21.62
2019-03-06T12:57:29.500Z,23.75
2019-03-06T13:02:31.210Z,24.44
2019-03-06T13:07:32.965Z,24.48
2019-03-06T13:12:38.236Z,24.48
2019-03-06T13:17:39.934Z,24.54
2019-03-06T13:22:42.164Z,24.40
2019-03-06T13:27:43.873Z,24.45
2019-03-06T13:32:59.701Z,24.89
2019-03-06T13:38:01.374Z,24.93
2019-03-06T13:43:03.133Z,23.61
2019-03-06T13:48:04.887Z,22.41
2019-03-06T13:53:06.537Z,22.14
2019-03-06T13:58:08.437Z,21.62
2019-03-06T14:03:10.283Z,20.84
2019-03-06T14:08:12.009Z,20.56
2019-03-06T14:13:13.696Z,20.38
2019-03-06T14:18:15.536Z,18.71
2019-03-06T14:23:17.221Z,18.00
2019-03-06T14:28:18.894Z,17.04
2019-03-06T14:33:21.116Z,16.51
2019-03-06T14:38:22.903Z,15.94
2019-03-06T14:43:24.660Z,15.30
2019-03-06T14:48:26.644Z,14.85
2019-03-06T14:53:28.370Z,14.51
2019-03-06T14:58:30.198Z,14.31
2019-03-06T15:03:32.228Z,14.22
2019-03-06T15:08:33.826Z,14.08
2019-03-06T15:13:35.528Z,13.99
2019-03-06T15:18:37.094Z,13.85
2019-03-06T15:23:38.884Z,13.80
2019-03-06T15:28:40.740Z,13.83
2019-03-06T15:33:46.425Z,13.94
2019-03-06T15:38:48.149Z,14.04
2019-03-06T15:43:49.861Z,14.00
2019-03-06T15:48:51.602Z,14.05
2019-03-06T15:53:54.769Z,13.99
2019-03-06T15:58:56.433Z,13.77
2019-03-06T16:03:58.022Z,13.60
2019-03-06T16:08:59.719Z,13.53
2019-03-06T16:14:01.432Z,13.43
2019-03-06T16:19:03.933Z,13.27
2019-03-06T16:24:05.484Z,13.17
2019-03-06T16:29:07.149Z,13.05
2019-03-06T16:34:08.829Z,12.91
2019-03-06T16:39:10.495Z,12.78
2019-03-06T16:44:12.561Z,12.67
2019-03-06T16:49:14.233Z,12.53
2019-03-06T16:54:16.164Z,12.37
2019-03-06T16:59:17.843Z,12.23
2019-03-06T17:04:19.517Z,12.15
2019-03-06T17:09:21.594Z,12.10
2019-03-06T17:14:23.682Z,12.07
2019-03-06T17:19:25.353Z,12.04
2019-03-06T17:24:27.026Z,12.02
2019-03-06T17:29:28.725Z,12.00
2019-03-06T17:34:30.702Z,12.00
2019-03-06T17:39:32.505Z,11.99
2019-03-06T17:44:34.212Z,11.96
2019-03-06T17:49:35.855Z,11.98
2019-03-06T17:54:37.546Z,11.97
2019-03-06T17:59:39.144Z,11.93
2019-03-06T18:04:40.741Z,11.90
2019-03-06T18:09:42.355Z,11.85
2019-03-06T18:14:44.191Z,11.81
2019-03-06T18:19:45.878Z,11.76
2019-03-06T18:24:47.438Z,11.72
2019-03-06T18:29:49.017Z,11.77
2019-03-06T18:34:50.635Z,11.80
2019-03-06T18:39:52.521Z,11.78
2019-03-06T18:44:54.180Z,11.75
2019-03-06T18:49:55.745Z,11.71
2019-03-06T18:54:57.357Z,11.67
2019-03-06T18:59:58.938Z,11.62
2019-03-06T19:05:00.537Z,11.62
2019-03-06T19:10:02.491Z,11.56
2019-03-06T19:15:04.508Z,11.50
2019-03-06T19:20:06.553Z,11.46
2019-03-06T19:25:08.914Z,11.39
2019-03-06T19:30:15.145Z,11.35
2019-03-06T19:35:17.398Z,11.37
2019-03-06T19:40:19.050Z,11.37
2019-03-06T19:45:20.855Z,11.32
2019-03-06T19:50:22.520Z,11.30
2019-03-06T19:55:24.484Z,11.29
2019-03-06T20:00:26.582Z,11.27
2019-03-06T20:05:30.442Z,11.27
2019-03-06T20:10:32.425Z,11.29
2019-03-06T20:15:34.135Z,11.36
2019-03-06T20:20:35.834Z,11.30
2019-03-06T20:25:37.537Z,11.26
2019-03-06T20:30:39.088Z,11.26
2019-03-06T20:35:40.745Z,11.23
2019-03-06T20:40:42.414Z,11.21
2019-03-06T20:45:44.244Z,11.21
2019-03-06T20:50:45.780Z,11.23
2019-03-06T20:55:47.351Z,11.22
2019-03-06T21:00:49.005Z,11.22
2019-03-06T21:05:50.690Z,11.28
2019-03-06T21:10:52.515Z,11.30
2019-03-06T21:15:54.211Z,11.31
2019-03-06T21:20:55.767Z,11.36
2019-03-06T21:25:57.360Z,11.40
2019-03-06T21:30:58.905Z,11.47
2019-03-06T21:36:00.453Z,11.52
2019-03-06T21:41:02.129Z,11.50
2019-03-06T21:46:03.802Z,11.46
2019-03-06T21:51:05.660Z,11.46
2019-03-06T21:56:07.327Z,11.43
2019-03-06T22:01:08.892Z,11.40
2019-03-06T22:06:10.451Z,11.40
2019-03-06T22:11:12.035Z,11.38
2019-03-06T22:16:13.577Z,11.37
2019-03-06T22:21:15.129Z,11.36
2019-03-06T22:26:16.693Z,11.36
2019-03-06T22:31:18.475Z,11.37
2019-03-06T22:36:20.115Z,11.35
2019-03-06T22:41:21.658Z,11.29
2019-03-06T22:46:23.234Z,11.25
2019-03-06T22:51:25.523Z,11.26
2019-03-06T22:56:27.205Z,11.29
2019-03-06T23:01:34.505Z,11.35
2019-03-06T23:06:36.184Z,11.36
2019-03-06T23:11:38.147Z,11.37
2019-03-06T23:16:39.814Z,11.38
2019-03-06T23:21:41.481Z,11.41
2019-03-06T23:26:43.388Z,11.42
2019-03-06T23:31:45.186Z,11.45
2019-03-06T23:36:46.857Z,11.46
2019-03-06T23:41:48.470Z,11.47
2019-03-06T23:46:50.382Z,11.48
2019-03-06T23:51:59.242Z,11.47
2019-03-06T23:57:00.888Z,11.49
